sensor_id;sensor_type;location;lat;lon;timestamp;temperature;humidity
21666;DHT22;10994;45.486;9.190;2022-09-02T00:01:15;24.20;99.90
21666;DHT22;10994;45.486;9.190;2022-09-02T00:03:42;24.20;99.90
21666;DHT22;10994;45.486;9.190;2022-09-02T00:06:09;24.10;99.90
21666;DHT22;10994;45.486;9.190;2022-09-02T00:08:34;24.10;99.90
21666;DHT22;10994;45.486;9.190;2022-09-02T00:11:01;23.90;99.90
21666;DHT22;10994;45.486;9.190;2022-09-02T00:13:31;23.90;99.90
21666;DHT22;10994;45.486;9.190;2022-09-02T00:15:59;24.00;99.90
21666;DHT22;10994;45.486;9.190;2022-09-02T00:18:25;24.10;99.90
21666;DHT22;10994;45.486;9.190;2022-09-02T00:20:52;24.10;99.90
21666;DHT22;10994;45.486;9.190;2022-09-02T00:23:18;24.10;99.90
21666;DHT22;10994;45.486;9.190;2022-09-02T00:25:44;24.10;99.90
21666;DHT22;10994;45.486;9.190;2022-09-02T00:28:12;24.10;99.90
21666;DHT22;10994;45.486;9.190;2022-09-02T00:30:38;24.20;99.90
21666;DHT22;10994;45.486;9.190;2022-09-02T00:33:05;24.20;99.90
21666;DHT22;10994;45.486;9.190;2022-09-02T00:35:30;24.20;99.90
21666;DHT22;10994;45.486;9.190;2022-09-02T00:37:56;24.20;99.90
21666;DHT22;10994;45.486;9.190;2022-09-02T00:40:22;24.30;99.90
21666;DHT22;10994;45.486;9.190;2022-09-02T00:42:49;24.30;99.90
21666;DHT22;10994;45.486;9.190;2022-09-02T00:45:16;24.30;99.90
21666;DHT22;10994;45.486;9.190;2022-09-02T00:47:43;24.00;99.90
21666;DHT22;10994;45.486;9.190;2022-09-02T00:50:12;24.10;99.90
21666;DHT22;10994;45.486;9.190;2022-09-02T00:52:46;24.20;99.90
21666;DHT22;10994;45.486;9.190;2022-09-02T00:55:17;24.10;99.90
21666;DHT22;10994;45.486;9.190;2022-09-02T00:57:46;24.20;99.90
21666;DHT22;10994;45.486;9.190;2022-09-02T01:00:23;24.30;99.90
21666;DHT22;10994;45.486;9.190;2022-09-02T01:02:55;24.30;99.90
21666;DHT22;10994;45.486;9.190;2022-09-02T01:05:24;24.30;99.90
21666;DHT22;10994;45.486;9.190;2022-09-02T01:07:51;24.30;99.90
21666;DHT22;10994;45.486;9.190;2022-09-02T01:10:28;24.20;99.90
21666;DHT22;10994;45.486;9.190;2022-09-02T01:13:00;24.20;99.90
21666;DHT22;10994;45.486;9.190;2022-09-02T01:15:26;24.20;99.90
21666;DHT22;10994;45.486;9.190;2022-09-02T01:17:54;24.30;99.90
21666;DHT22;10994;45.486;9.190;2022-09-02T01:20:23;24.30;99.90
21666;DHT22;10994;45.486;9.190;2022-09-02T01:22:50;24.30;99.90
21666;DHT22;10994;45.486;9.190;2022-09-02T01:25:19;24.10;99.90
21666;DHT22;10994;45.486;9.190;2022-09-02T01:27:46;24.10;99.90
21666;DHT22;10994;45.486;9.190;2022-09-02T01:30:17;24.10;99.90
21666;DHT22;10994;45.486;9.190;2022-09-02T01:32:43;24.20;99.90
21666;DHT22;10994;45.486;9.190;2022-09-02T01:35:09;24.10;99.90
21666;DHT22;10994;45.486;9.190;2022-09-02T01:37:35;24.10;99.90
21666;DHT22;10994;45.486;9.190;2022-09-02T01:40:06;24.10;99.90
21666;DHT22;10994;45.486;9.190;2022-09-02T01:42:34;24.10;99.90
21666;DHT22;10994;45.486;9.190;2022-09-02T01:44:59;24.10;99.90
21666;DHT22;10994;45.486;9.190;2022-09-02T01:47:26;24.10;99.90
21666;DHT22;10994;45.486;9.190;2022-09-02T01:49:53;24.10;99.90
21666;DHT22;10994;45.486;9.190;2022-09-02T01:52:20;24.10;99.90
21666;DHT22;10994;45.486;9.190;2022-09-02T01:54:46;24.10;99.90
21666;DHT22;10994;45.486;9.190;2022-09-02T01:57:12;24.10;99.90
21666;DHT22;10994;45.486;9.190;2022-09-02T01:59:39;24.10;99.90
21666;DHT22;10994;45.486;9.190;2022-09-02T02:02:05;24.10;99.90
21666;DHT22;10994;45.486;9.190;2022-09-02T02:04:31;24.00;99.90
21666;DHT22;10994;45.486;9.190;2022-09-02T02:06:58;24.00;99.90
21666;DHT22;10994;45.486;9.190;2022-09-02T02:09:25;23.90;99.90
21666;DHT22;10994;45.486;9.190;2022-09-02T02:11:52;23.80;99.90
21666;DHT22;10994;45.486;9.190;2022-09-02T02:14:18;23.90;99.90
21666;DHT22;10994;45.486;9.190;2022-09-02T02:16:47;23.90;99.90
21666;DHT22;10994;45.486;9.190;2022-09-02T02:19:13;24.00;99.90
21666;DHT22;10994;45.486;9.190;2022-09-02T02:21:39;23.90;99.90
21666;DHT22;10994;45.486;9.190;2022-09-02T02:24:06;23.90;99.90
21666;DHT22;10994;45.486;9.190;2022-09-02T02:26:33;23.90;99.90
21666;DHT22;10994;45.486;9.190;2022-09-02T02:29:00;23.70;99.90
21666;DHT22;10994;45.486;9.190;2022-09-02T02:31:27;23.70;99.90
21666;DHT22;10994;45.486;9.190;2022-09-02T02:33:53;23.70;99.90
21666;DHT22;10994;45.486;9.190;2022-09-02T02:36:20;23.60;99.90
21666;DHT22;10994;45.486;9.190;2022-09-02T02:38:46;23.70;99.90
21666;DHT22;10994;45.486;9.190;2022-09-02T02:41:12;23.70;99.90
21666;DHT22;10994;45.486;9.190;2022-09-02T02:43:39;23.70;99.90
21666;DHT22;10994;45.486;9.190;2022-09-02T02:46:05;23.80;99.90
21666;DHT22;10994;45.486;9.190;2022-09-02T02:48:33;23.70;99.90
21666;DHT22;10994;45.486;9.190;2022-09-02T02:50:59;23.80;99.90
21666;DHT22;10994;45.486;9.190;2022-09-02T02:53:25;23.80;99.90
21666;DHT22;10994;45.486;9.190;2022-09-02T02:55:54;23.80;99.90
21666;DHT22;10994;45.486;9.190;2022-09-02T02:58:20;23.70;99.90
21666;DHT22;10994;45.486;9.190;2022-09-02T03:00:48;23.70;99.90
21666;DHT22;10994;45.486;9.190;2022-09-02T03:03:16;23.80;99.90
21666;DHT22;10994;45.486;9.190;2022-09-02T03:05:46;23.90;99.90
21666;DHT22;10994;45.486;9.190;2022-09-02T03:08:13;23.90;99.90
21666;DHT22;10994;45.486;9.190;2022-09-02T03:10:40;23.80;99.90
21666;DHT22;10994;45.486;9.190;2022-09-02T03:13:08;23.90;99.90
21666;DHT22;10994;45.486;9.190;2022-09-02T03:15:38;23.90;99.90
21666;DHT22;10994;45.486;9.190;2022-09-02T03:18:04;23.80;99.90
21666;DHT22;10994;45.486;9.190;2022-09-02T03:20:31;23.60;99.90
21666;DHT22;10994;45.486;9.190;2022-09-02T03:23:02;23.70;99.90
21666;DHT22;10994;45.486;9.190;2022-09-02T03:25:31;23.80;99.90
21666;DHT22;10994;45.486;9.190;2022-09-02T03:28:02;23.70;99.90
21666;DHT22;10994;45.486;9.190;2022-09-02T03:30:30;23.70;99.90
21666;DHT22;10994;45.486;9.190;2022-09-02T03:32:58;23.70;99.90
21666;DHT22;10994;45.486;9.190;2022-09-02T03:35:25;23.80;99.90
21666;DHT22;10994;45.486;9.190;2022-09-02T03:37:52;23.90;99.90
21666;DHT22;10994;45.486;9.190;2022-09-02T03:40:21;23.90;99.90
21666;DHT22;10994;45.486;9.190;2022-09-02T03:42:51;23.80;99.90
21666;DHT22;10994;45.486;9.190;2022-09-02T03:45:19;23.80;99.90
21666;DHT22;10994;45.486;9.190;2022-09-02T03:47:46;23.80;99.90
21666;DHT22;10994;45.486;9.190;2022-09-02T03:50:38;23.50;99.90
21666;DHT22;10994;45.486;9.190;2022-09-02T03:53:08;23.50;99.90
21666;DHT22;10994;45.486;9.190;2022-09-02T03:55:36;23.40;99.90
21666;DHT22;10994;45.486;9.190;2022-09-02T03:58:02;23.40;99.90
21666;DHT22;10994;45.486;9.190;2022-09-02T04:00:28;23.50;99.90
21666;DHT22;10994;45.486;9.190;2022-09-02T04:03:00;23.50;99.90
21666;DHT22;10994;45.486;9.190;2022-09-02T04:05:27;23.70;99.90
21666;DHT22;10994;45.486;9.190;2022-09-02T04:07:54;23.60;99.90
21666;DHT22;10994;45.486;9.190;2022-09-02T04:10:22;23.50;99.90
21666;DHT22;10994;45.486;9.190;2022-09-02T04:12:49;23.50;99.90
21666;DHT22;10994;45.486;9.190;2022-09-02T04:15:16;23.50;99.90
21666;DHT22;10994;45.486;9.190;2022-09-02T04:17:43;23.50;99.90
21666;DHT22;10994;45.486;9.190;2022-09-02T04:20:12;23.60;99.90
21666;DHT22;10994;45.486;9.190;2022-09-02T04:22:39;23.70;99.90
21666;DHT22;10994;45.486;9.190;2022-09-02T04:25:06;23.80;99.90
21666;DHT22;10994;45.486;9.190;2022-09-02T04:27:33;23.70;99.90
21666;DHT22;10994;45.486;9.190;2022-09-02T04:29:59;23.80;99.90
21666;DHT22;10994;45.486;9.190;2022-09-02T04:32:26;23.90;99.90
21666;DHT22;10994;45.486;9.190;2022-09-02T04:34:52;23.90;99.90
21666;DHT22;10994;45.486;9.190;2022-09-02T04:37:18;23.90;99.90
21666;DHT22;10994;45.486;9.190;2022-09-02T04:39:45;23.90;99.90
21666;DHT22;10994;45.486;9.190;2022-09-02T04:42:11;23.80;99.90
21666;DHT22;10994;45.486;9.190;2022-09-02T04:44:37;23.80;99.90
21666;DHT22;10994;45.486;9.190;2022-09-02T04:47:03;23.60;99.90
21666;DHT22;10994;45.486;9.190;2022-09-02T04:49:29;23.60;99.90
21666;DHT22;10994;45.486;9.190;2022-09-02T04:51:58;23.70;99.90
21666;DHT22;10994;45.486;9.190;2022-09-02T04:54:25;23.80;99.90
21666;DHT22;10994;45.486;9.190;2022-09-02T04:56:53;23.70;99.90
21666;DHT22;10994;45.486;9.190;2022-09-02T04:59:20;23.60;99.90
21666;DHT22;10994;45.486;9.190;2022-09-02T05:01:59;23.60;99.90
21666;DHT22;10994;45.486;9.190;2022-09-02T05:04:27;23.70;99.90
21666;DHT22;10994;45.486;9.190;2022-09-02T05:06:56;23.70;99.90
21666;DHT22;10994;45.486;9.190;2022-09-02T05:09:23;23.70;99.90
21666;DHT22;10994;45.486;9.190;2022-09-02T05:11:53;23.80;99.90
21666;DHT22;10994;45.486;9.190;2022-09-02T05:14:24;23.70;99.90
21666;DHT22;10994;45.486;9.190;2022-09-02T05:16:50;23.70;99.90
21666;DHT22;10994;45.486;9.190;2022-09-02T05:19:21;23.70;99.90
21666;DHT22;10994;45.486;9.190;2022-09-02T05:21:51;23.80;99.90
21666;DHT22;10994;45.486;9.190;2022-09-02T05:24:25;23.60;99.90
21666;DHT22;10994;45.486;9.190;2022-09-02T05:26:52;23.60;99.90
21666;DHT22;10994;45.486;9.190;2022-09-02T05:29:17;23.40;99.90
21666;DHT22;10994;45.486;9.190;2022-09-02T05:31:46;23.50;99.90
21666;DHT22;10994;45.486;9.190;2022-09-02T05:34:13;23.50;99.90
21666;DHT22;10994;45.486;9.190;2022-09-02T05:36:39;23.50;99.90
21666;DHT22;10994;45.486;9.190;2022-09-02T05:39:05;23.50;99.90
21666;DHT22;10994;45.486;9.190;2022-09-02T05:41:32;23.50;99.90
21666;DHT22;10994;45.486;9.190;2022-09-02T05:44:01;23.50;99.90
21666;DHT22;10994;45.486;9.190;2022-09-02T05:46:28;23.40;99.90
21666;DHT22;10994;45.486;9.190;2022-09-02T05:48:56;23.50;99.90
21666;DHT22;10994;45.486;9.190;2022-09-02T05:51:47;23.50;99.90
21666;DHT22;10994;45.486;9.190;2022-09-02T05:54:16;23.40;99.90
21666;DHT22;10994;45.486;9.190;2022-09-02T05:56:45;23.50;99.90
21666;DHT22;10994;45.486;9.190;2022-09-02T05:59:13;23.50;99.90
21666;DHT22;10994;45.486;9.190;2022-09-02T06:01:40;23.60;99.90
21666;DHT22;10994;45.486;9.190;2022-09-02T06:04:06;23.60;99.90
21666;DHT22;10994;45.486;9.190;2022-09-02T06:06:34;23.50;99.90
21666;DHT22;10994;45.486;9.190;2022-09-02T06:09:00;23.30;99.90
21666;DHT22;10994;45.486;9.190;2022-09-02T06:11:26;23.30;99.90
21666;DHT22;10994;45.486;9.190;2022-09-02T06:13:53;23.30;99.90
21666;DHT22;10994;45.486;9.190;2022-09-02T06:16:21;23.20;99.90
21666;DHT22;10994;45.486;9.190;2022-09-02T06:18:49;23.30;99.90
21666;DHT22;10994;45.486;9.190;2022-09-02T06:21:15;23.50;99.90
21666;DHT22;10994;45.486;9.190;2022-09-02T06:23:46;23.50;99.90
21666;DHT22;10994;45.486;9.190;2022-09-02T06:26:14;23.70;99.90
21666;DHT22;10994;45.486;9.190;2022-09-02T06:28:40;23.80;99.90
21666;DHT22;10994;45.486;9.190;2022-09-02T06:31:12;23.80;99.90
21666;DHT22;10994;45.486;9.190;2022-09-02T06:33:41;23.80;99.90
21666;DHT22;10994;45.486;9.190;2022-09-02T06:36:15;23.70;99.90
21666;DHT22;10994;45.486;9.190;2022-09-02T06:38:44;23.70;99.90
21666;DHT22;10994;45.486;9.190;2022-09-02T06:41:13;23.80;99.90
21666;DHT22;10994;45.486;9.190;2022-09-02T06:43:42;23.90;99.90
21666;DHT22;10994;45.486;9.190;2022-09-02T06:46:23;24.00;99.90
21666;DHT22;10994;45.486;9.190;2022-09-02T06:48:53;23.90;99.90
21666;DHT22;10994;45.486;9.190;2022-09-02T06:51:27;23.70;99.90
21666;DHT22;10994;45.486;9.190;2022-09-02T06:53:54;23.90;99.90
21666;DHT22;10994;45.486;9.190;2022-09-02T06:56:23;23.90;99.90
21666;DHT22;10994;45.486;9.190;2022-09-02T06:58:49;23.90;99.90
21666;DHT22;10994;45.486;9.190;2022-09-02T07:01:24;23.90;99.90
21666;DHT22;10994;45.486;9.190;2022-09-02T07:03:51;23.90;99.90
21666;DHT22;10994;45.486;9.190;2022-09-02T07:06:41;24.00;99.90
21666;DHT22;10994;45.486;9.190;2022-09-02T07:09:09;24.10;99.90
21666;DHT22;10994;45.486;9.190;2022-09-02T07:11:38;24.00;99.90
21666;DHT22;10994;45.486;9.190;2022-09-02T07:14:05;24.00;99.90
21666;DHT22;10994;45.486;9.190;2022-09-02T07:16:40;23.70;99.90
21666;DHT22;10994;45.486;9.190;2022-09-02T07:19:10;23.70;99.90
21666;DHT22;10994;45.486;9.190;2022-09-02T07:21:36;23.70;99.90
21666;DHT22;10994;45.486;9.190;2022-09-02T07:24:04;23.80;99.90
21666;DHT22;10994;45.486;9.190;2022-09-02T07:26:30;23.90;99.90
21666;DHT22;10994;45.486;9.190;2022-09-02T07:28:56;24.00;99.90
21666;DHT22;10994;45.486;9.190;2022-09-02T07:31:23;24.10;99.90
21666;DHT22;10994;45.486;9.190;2022-09-02T07:33:49;24.20;99.90
21666;DHT22;10994;45.486;9.190;2022-09-02T07:36:18;24.40;99.90
21666;DHT22;10994;45.486;9.190;2022-09-02T07:38:46;24.50;99.90
21666;DHT22;10994;45.486;9.190;2022-09-02T07:41:13;24.60;99.90
21666;DHT22;10994;45.486;9.190;2022-09-02T07:43:39;24.70;99.90
21666;DHT22;10994;45.486;9.190;2022-09-02T07:46:07;24.80;99.90
21666;DHT22;10994;45.486;9.190;2022-09-02T07:48:33;24.70;99.90
21666;DHT22;10994;45.486;9.190;2022-09-02T07:51:00;24.30;99.90
21666;DHT22;10994;45.486;9.190;2022-09-02T07:53:28;24.40;99.90
21666;DHT22;10994;45.486;9.190;2022-09-02T07:55:55;24.30;99.90
21666;DHT22;10994;45.486;9.190;2022-09-02T07:58:21;24.40;99.90
21666;DHT22;10994;45.486;9.190;2022-09-02T08:00:49;24.50;99.90
21666;DHT22;10994;45.486;9.190;2022-09-02T08:03:15;24.30;99.90
21666;DHT22;10994;45.486;9.190;2022-09-02T08:05:47;24.30;99.90
21666;DHT22;10994;45.486;9.190;2022-09-02T08:08:14;24.30;99.90
21666;DHT22;10994;45.486;9.190;2022-09-02T08:10:41;24.10;99.90
21666;DHT22;10994;45.486;9.190;2022-09-02T08:13:07;24.10;99.90
21666;DHT22;10994;45.486;9.190;2022-09-02T08:15:34;24.10;99.90
21666;DHT22;10994;45.486;9.190;2022-09-02T08:18:01;24.30;99.90
21666;DHT22;10994;45.486;9.190;2022-09-02T08:20:27;24.50;99.90
21666;DHT22;10994;45.486;9.190;2022-09-02T08:22:55;24.70;99.90
21666;DHT22;10994;45.486;9.190;2022-09-02T08:25:21;24.80;99.90
21666;DHT22;10994;45.486;9.190;2022-09-02T08:27:46;24.70;99.90
21666;DHT22;10994;45.486;9.190;2022-09-02T08:30:12;24.50;99.90
21666;DHT22;10994;45.486;9.190;2022-09-02T08:32:39;24.30;99.90
21666;DHT22;10994;45.486;9.190;2022-09-02T08:35:06;24.40;99.90
21666;DHT22;10994;45.486;9.190;2022-09-02T08:37:33;24.40;99.90
21666;DHT22;10994;45.486;9.190;2022-09-02T08:40:00;24.40;99.90
21666;DHT22;10994;45.486;9.190;2022-09-02T08:42:44;24.50;99.90
21666;DHT22;10994;45.486;9.190;2022-09-02T08:45:22;24.40;99.90
21666;DHT22;10994;45.486;9.190;2022-09-02T08:50:30;24.20;99.90
21666;DHT22;10994;45.486;9.190;2022-09-02T08:55:44;24.30;99.90
21666;DHT22;10994;45.486;9.190;2022-09-02T08:58:16;24.40;99.90
21666;DHT22;10994;45.486;9.190;2022-09-02T09:00:43;24.50;99.90
21666;DHT22;10994;45.486;9.190;2022-09-02T09:06:16;24.30;99.90
21666;DHT22;10994;45.486;9.190;2022-09-02T09:11:27;24.30;99.90
21666;DHT22;10994;45.486;9.190;2022-09-02T09:19:14;24.40;99.90
21666;DHT22;10994;45.486;9.190;2022-09-02T09:21:42;24.50;99.90
21666;DHT22;10994;45.486;9.190;2022-09-02T09:24:25;24.40;99.90
21666;DHT22;10994;45.486;9.190;2022-09-02T09:26:53;24.60;99.90
21666;DHT22;10994;45.486;9.190;2022-09-02T09:29:19;24.80;99.90
21666;DHT22;10994;45.486;9.190;2022-09-02T09:31:56;24.80;99.90
21666;DHT22;10994;45.486;9.190;2022-09-02T09:34:22;24.70;99.90
21666;DHT22;10994;45.486;9.190;2022-09-02T09:36:53;24.70;99.90
21666;DHT22;10994;45.486;9.190;2022-09-02T09:42:01;24.50;99.90
21666;DHT22;10994;45.486;9.190;2022-09-02T09:44:37;24.50;99.90
21666;DHT22;10994;45.486;9.190;2022-09-02T09:47:06;24.50;99.90
21666;DHT22;10994;45.486;9.190;2022-09-02T09:49:32;24.40;99.90
21666;DHT22;10994;45.486;9.190;2022-09-02T09:51:58;24.30;99.90
21666;DHT22;10994;45.486;9.190;2022-09-02T09:54:26;24.40;99.90
21666;DHT22;10994;45.486;9.190;2022-09-02T09:56:53;24.40;99.90
21666;DHT22;10994;45.486;9.190;2022-09-02T09:59:40;24.30;99.90
21666;DHT22;10994;45.486;9.190;2022-09-02T10:02:17;24.40;99.90
21666;DHT22;10994;45.486;9.190;2022-09-02T10:04:44;24.60;99.90
21666;DHT22;10994;45.486;9.190;2022-09-02T10:07:11;24.80;99.90
21666;DHT22;10994;45.486;9.190;2022-09-02T10:09:37;24.90;99.90
21666;DHT22;10994;45.486;9.190;2022-09-02T10:12:06;25.00;99.90
21666;DHT22;10994;45.486;9.190;2022-09-02T10:14:33;25.20;99.90
21666;DHT22;10994;45.486;9.190;2022-09-02T10:19:51;25.10;99.90
21666;DHT22;10994;45.486;9.190;2022-09-02T10:31:05;24.90;99.90
21666;DHT22;10994;45.486;9.190;2022-09-02T10:33:45;25.00;99.90
21666;DHT22;10994;45.486;9.190;2022-09-02T10:36:45;25.20;99.90
21666;DHT22;10994;45.486;9.190;2022-09-02T10:39:20;25.20;99.90
21666;DHT22;10994;45.486;9.190;2022-09-02T10:41:51;25.30;99.90
21666;DHT22;10994;45.486;9.190;2022-09-02T10:44:32;25.30;99.90
21666;DHT22;10994;45.486;9.190;2022-09-02T10:47:26;25.20;99.90
21666;DHT22;10994;45.486;9.190;2022-09-02T10:50:19;25.40;99.90
21666;DHT22;10994;45.486;9.190;2022-09-02T10:53:00;25.60;99.90
21666;DHT22;10994;45.486;9.190;2022-09-02T10:58:44;25.40;99.90
21666;DHT22;10994;45.486;9.190;2022-09-02T11:01:17;25.40;99.90
21666;DHT22;10994;45.486;9.190;2022-09-02T11:06:29;25.60;99.90
21666;DHT22;10994;45.486;9.190;2022-09-02T11:09:25;25.50;99.90
21666;DHT22;10994;45.486;9.190;2022-09-02T11:12:30;25.50;99.90
21666;DHT22;10994;45.486;9.190;2022-09-02T11:15:10;25.50;99.90
21666;DHT22;10994;45.486;9.190;2022-09-02T11:20:46;25.60;99.90
21666;DHT22;10994;45.486;9.190;2022-09-02T11:31:04;25.90;99.90
21666;DHT22;10994;45.486;9.190;2022-09-02T11:36:03;25.90;99.90
21666;DHT22;10994;45.486;9.190;2022-09-02T11:38:36;25.90;99.90
21666;DHT22;10994;45.486;9.190;2022-09-02T11:53:30;26.10;99.90
21666;DHT22;10994;45.486;9.190;2022-09-02T11:55:40;26.00;99.90
21666;DHT22;10994;45.486;9.190;2022-09-02T11:58:11;26.00;99.90
21666;DHT22;10994;45.486;9.190;2022-09-02T12:03:24;26.20;99.90
21666;DHT22;10994;45.486;9.190;2022-09-02T12:06:14;26.40;99.90
21666;DHT22;10994;45.486;9.190;2022-09-02T12:11:41;27.00;99.90
21666;DHT22;10994;45.486;9.190;2022-09-02T12:15:00;27.10;99.90
21666;DHT22;10994;45.486;9.190;2022-09-02T12:17:03;27.00;99.90
21666;DHT22;10994;45.486;9.190;2022-09-02T12:19:44;27.10;99.90
21666;DHT22;10994;45.486;9.190;2022-09-02T12:25:00;26.80;99.90
21666;DHT22;10994;45.486;9.190;2022-09-02T12:27:36;26.70;99.90
21666;DHT22;10994;45.486;9.190;2022-09-02T12:30:08;26.60;99.90
21666;DHT22;10994;45.486;9.190;2022-09-02T12:35:12;26.30;99.90
21666;DHT22;10994;45.486;9.190;2022-09-02T12:38:16;26.50;99.90
21666;DHT22;10994;45.486;9.190;2022-09-02T12:46:44;27.60;99.90
21666;DHT22;10994;45.486;9.190;2022-09-02T12:49:40;27.20;99.90
21666;DHT22;10994;45.486;9.190;2022-09-02T12:52:11;27.30;99.90
21666;DHT22;10994;45.486;9.190;2022-09-02T12:54:54;27.70;99.90
21666;DHT22;10994;45.486;9.190;2022-09-02T12:57:38;27.90;99.90
21666;DHT22;10994;45.486;9.190;2022-09-02T13:00:04;28.10;99.90
21666;DHT22;10994;45.486;9.190;2022-09-02T13:13:58;28.50;99.90
21666;DHT22;10994;45.486;9.190;2022-09-02T13:24:37;28.20;99.90
21666;DHT22;10994;45.486;9.190;2022-09-02T13:27:18;28.00;99.90
21666;DHT22;10994;45.486;9.190;2022-09-02T13:30:06;27.80;99.90
21666;DHT22;10994;45.486;9.190;2022-09-02T13:32:34;27.80;99.90
21666;DHT22;10994;45.486;9.190;2022-09-02T13:35:05;27.80;99.90
21666;DHT22;10994;45.486;9.190;2022-09-02T13:40:19;27.70;99.90
21666;DHT22;10994;45.486;9.190;2022-09-02T13:43:00;27.90;99.90
21666;DHT22;10994;45.486;9.190;2022-09-02T13:45:47;28.10;99.90
21666;DHT22;10994;45.486;9.190;2022-09-02T13:48:18;28.00;99.90
21666;DHT22;10994;45.486;9.190;2022-09-02T13:50:47;27.80;99.90
21666;DHT22;10994;45.486;9.190;2022-09-02T13:53:23;27.80;99.90
21666;DHT22;10994;45.486;9.190;2022-09-02T13:55:54;27.90;99.90
21666;DHT22;10994;45.486;9.190;2022-09-02T14:01:18;28.20;99.90
21666;DHT22;10994;45.486;9.190;2022-09-02T14:04:08;28.30;99.90
21666;DHT22;10994;45.486;9.190;2022-09-02T14:06:34;28.20;99.90
21666;DHT22;10994;45.486;9.190;2022-09-02T14:09:06;28.20;99.90
21666;DHT22;10994;45.486;9.190;2022-09-02T14:11:39;28.30;99.90
21666;DHT22;10994;45.486;9.190;2022-09-02T14:14:06;28.50;99.90
21666;DHT22;10994;45.486;9.190;2022-09-02T14:16:36;28.50;99.90
21666;DHT22;10994;45.486;9.190;2022-09-02T14:19:23;28.60;99.90
21666;DHT22;10994;45.486;9.190;2022-09-02T14:21:54;28.40;99.90
21666;DHT22;10994;45.486;9.190;2022-09-02T14:24:36;28.40;99.90
21666;DHT22;10994;45.486;9.190;2022-09-02T14:27:17;28.40;99.90
21666;DHT22;10994;45.486;9.190;2022-09-02T14:29:45;28.30;99.90
21666;DHT22;10994;45.486;9.190;2022-09-02T14:32:33;28.20;99.90
21666;DHT22;10994;45.486;9.190;2022-09-02T14:35:18;28.20;99.90
21666;DHT22;10994;45.486;9.190;2022-09-02T14:37:49;28.40;99.90
21666;DHT22;10994;45.486;9.190;2022-09-02T14:40:16;28.60;99.90
21666;DHT22;10994;45.486;9.190;2022-09-02T14:42:53;28.60;99.90
21666;DHT22;10994;45.486;9.190;2022-09-02T14:45:31;28.50;99.90
21666;DHT22;10994;45.486;9.190;2022-09-02T14:48:08;28.50;99.90
21666;DHT22;10994;45.486;9.190;2022-09-02T14:50:34;28.40;99.90
21666;DHT22;10994;45.486;9.190;2022-09-02T14:53:08;28.10;99.90
21666;DHT22;10994;45.486;9.190;2022-09-02T14:55:53;28.20;99.90
21666;DHT22;10994;45.486;9.190;2022-09-02T14:58:24;28.00;99.90
21666;DHT22;10994;45.486;9.190;2022-09-02T15:00:52;27.80;99.90
21666;DHT22;10994;45.486;9.190;2022-09-02T15:03:20;27.90;99.90
21666;DHT22;10994;45.486;9.190;2022-09-02T15:05:46;28.00;99.90
21666;DHT22;10994;45.486;9.190;2022-09-02T15:08:13;28.00;99.90
21666;DHT22;10994;45.486;9.190;2022-09-02T15:10:40;27.70;99.90
21666;DHT22;10994;45.486;9.190;2022-09-02T15:13:08;27.70;99.90
21666;DHT22;10994;45.486;9.190;2022-09-02T15:15:37;27.60;99.90
21666;DHT22;10994;45.486;9.190;2022-09-02T15:18:03;27.40;99.90
21666;DHT22;10994;45.486;9.190;2022-09-02T15:20:30;27.40;99.90
21666;DHT22;10994;45.486;9.190;2022-09-02T15:22:56;27.60;99.90
21666;DHT22;10994;45.486;9.190;2022-09-02T15:25:21;27.70;99.90
21666;DHT22;10994;45.486;9.190;2022-09-02T15:27:47;27.50;99.90
21666;DHT22;10994;45.486;9.190;2022-09-02T15:30:13;27.60;99.90
21666;DHT22;10994;45.486;9.190;2022-09-02T15:32:39;27.60;99.90
21666;DHT22;10994;45.486;9.190;2022-09-02T15:35:06;27.70;99.90
21666;DHT22;10994;45.486;9.190;2022-09-02T15:37:33;27.70;99.90
21666;DHT22;10994;45.486;9.190;2022-09-02T15:40:03;27.70;99.90
21666;DHT22;10994;45.486;9.190;2022-09-02T15:42:33;27.70;99.90
21666;DHT22;10994;45.486;9.190;2022-09-02T15:45:00;27.70;99.90
21666;DHT22;10994;45.486;9.190;2022-09-02T15:47:27;27.50;99.90
21666;DHT22;10994;45.486;9.190;2022-09-02T15:49:55;27.50;99.90
21666;DHT22;10994;45.486;9.190;2022-09-02T15:52:24;27.50;99.90
21666;DHT22;10994;45.486;9.190;2022-09-02T15:54:50;27.30;99.90
21666;DHT22;10994;45.486;9.190;2022-09-02T15:57:21;27.40;99.90
21666;DHT22;10994;45.486;9.190;2022-09-02T15:59:47;27.50;99.90
21666;DHT22;10994;45.486;9.190;2022-09-02T16:02:12;27.40;99.90
21666;DHT22;10994;45.486;9.190;2022-09-02T16:04:38;27.40;99.90
21666;DHT22;10994;45.486;9.190;2022-09-02T16:07:04;27.40;99.90
21666;DHT22;10994;45.486;9.190;2022-09-02T16:09:30;27.40;99.90
21666;DHT22;10994;45.486;9.190;2022-09-02T16:11:56;27.50;99.90
21666;DHT22;10994;45.486;9.190;2022-09-02T16:14:22;27.60;99.90
21666;DHT22;10994;45.486;9.190;2022-09-02T16:16:49;27.40;99.90
21666;DHT22;10994;45.486;9.190;2022-09-02T16:19:19;27.30;99.90
21666;DHT22;10994;45.486;9.190;2022-09-02T16:21:58;27.30;99.90
21666;DHT22;10994;45.486;9.190;2022-09-02T16:24:35;27.30;99.90
21666;DHT22;10994;45.486;9.190;2022-09-02T16:27:01;27.30;99.90
21666;DHT22;10994;45.486;9.190;2022-09-02T16:29:27;27.10;99.90
21666;DHT22;10994;45.486;9.190;2022-09-02T16:31:55;27.00;99.90
21666;DHT22;10994;45.486;9.190;2022-09-02T16:34:21;26.90;99.90
21666;DHT22;10994;45.486;9.190;2022-09-02T16:36:48;26.90;99.90
21666;DHT22;10994;45.486;9.190;2022-09-02T16:39:16;26.90;99.90
21666;DHT22;10994;45.486;9.190;2022-09-02T16:41:47;26.90;99.90
21666;DHT22;10994;45.486;9.190;2022-09-02T16:44:19;26.80;99.90
21666;DHT22;10994;45.486;9.190;2022-09-02T16:46:46;26.70;99.90
21666;DHT22;10994;45.486;9.190;2022-09-02T16:49:18;26.60;99.90
21666;DHT22;10994;45.486;9.190;2022-09-02T16:51:49;26.70;99.90
21666;DHT22;10994;45.486;9.190;2022-09-02T16:54:16;26.60;99.90
21666;DHT22;10994;45.486;9.190;2022-09-02T16:56:45;26.60;99.90
21666;DHT22;10994;45.486;9.190;2022-09-02T16:59:11;26.40;99.90
21666;DHT22;10994;45.486;9.190;2022-09-02T17:01:37;26.20;99.90
21666;DHT22;10994;45.486;9.190;2022-09-02T17:04:05;26.10;99.90
21666;DHT22;10994;45.486;9.190;2022-09-02T17:06:31;26.00;99.90
21666;DHT22;10994;45.486;9.190;2022-09-02T17:08:57;26.10;99.90
21666;DHT22;10994;45.486;9.190;2022-09-02T17:11:28;26.20;99.90
21666;DHT22;10994;45.486;9.190;2022-09-02T17:14:00;26.10;99.90
21666;DHT22;10994;45.486;9.190;2022-09-02T17:16:32;26.10;99.90
21666;DHT22;10994;45.486;9.190;2022-09-02T17:18:58;26.10;99.90
21666;DHT22;10994;45.486;9.190;2022-09-02T17:21:34;26.10;99.90
21666;DHT22;10994;45.486;9.190;2022-09-02T17:24:01;26.00;99.90
21666;DHT22;10994;45.486;9.190;2022-09-02T17:26:29;26.00;99.90
21666;DHT22;10994;45.486;9.190;2022-09-02T17:28:56;26.10;99.90
21666;DHT22;10994;45.486;9.190;2022-09-02T17:33:48;26.10;99.90